.
WxDataArchive / Data Records for 2016-02-17
2016-02-16 February 2016 2016-02-18

Data Records for Wednesday, 17 February 2016

Time	Temp	Chill	HIndex	Humid	Dewpt	 Wind 	HiWind	WindDir	Rain 	Barom
-----	----	-----	------	-----	-----	------	------	-------	-----	-----
00:00	29.4	29.4	29.4	88	26.3	0	1	315	0.00	29.949 
00:05	29.4	29.4	29.4	88	26.3	0	1	315	0.00	29.949 
00:10	29.3	29.3	29.3	88	26.2	0	1	315	0.00	29.949 
00:15	29.3	29.3	29.3	89	26.5	0	1	315	0.00	29.951 
00:20	29.3	29.3	29.3	89	26.5	0	1	315	0.00	29.951 
00:25	29.3	29.3	29.3	89	26.5	0	1	315	0.00	29.951 
00:30	29.1	29.1	29.1	89	26.3	0	0	---	0.00	29.951 
00:35	29.1	29.1	29.1	89	26.3	0	0	---	0.00	29.951 
00:40	29.0	29.0	29.0	90	26.4	0	0	---	0.00	29.951 
00:45	29.0	29.0	29.0	90	26.4	0	0	---	0.00	29.951 
00:50	29.0	29.0	29.0	90	26.4	0	0	---	0.00	29.951 
00:55	29.0	29.0	29.0	90	26.4	0	0	---	0.00	29.951 
01:00	29.0	29.0	29.0	90	26.4	0	1	315	0.00	29.951 
01:05	29.0	29.0	29.0	90	26.4	0	0	---	0.00	29.951 
01:10	29.0	29.0	29.0	90	26.4	0	0	---	0.00	29.951 
01:15	29.0	29.0	29.0	90	26.4	0	1	315	0.00	29.951 
01:20	29.0	29.0	29.0	91	26.7	0	0	---	0.00	29.951 
01:25	29.0	29.0	29.0	91	26.7	0	1	315	0.00	29.951 
01:30	29.0	29.0	29.0	91	26.7	0	0	---	0.00	29.957 
01:35	29.0	29.0	29.0	91	26.7	0	0	---	0.00	29.957 
01:40	29.0	29.0	29.0	91	26.7	0	1	315	0.00	29.957 
01:45	29.0	29.0	29.0	91	26.7	0	1	315	0.00	29.963 
01:50	29.0	29.0	29.0	91	26.7	0	1	315	0.00	29.963 
01:55	29.0	29.0	29.0	91	26.7	0	2	315	0.00	29.963 
02:00	29.0	29.0	29.0	91	26.7	0	1	315	0.00	29.967 
02:05	29.0	29.0	29.0	91	26.7	0	1	315	0.00	29.967 
02:10	29.0	29.0	29.0	91	26.7	0	1	315	0.00	29.967 
02:15	29.1	29.1	29.1	91	26.8	0	2	315	0.00	29.972 
02:20	29.1	29.1	29.1	91	26.8	0	1	315	0.00	29.972 
02:25	29.1	29.1	29.1	91	26.8	0	1	315	0.00	29.972 
02:30	29.1	29.1	29.1	91	26.8	0	1	315	0.00	29.977 
02:35	29.1	29.1	29.1	91	26.8	0	2	315	0.00	29.977 
02:40	29.1	29.1	29.1	91	26.8	0	1	315	0.00	29.977 
02:45	29.1	29.1	29.1	91	26.8	0	2	315	0.00	29.981 
02:50	29.1	29.1	29.1	91	26.8	0	1	315	0.00	29.981 
02:55	29.1	29.1	29.1	91	26.8	0	1	315	0.00	29.981 
03:00	29.1	29.1	29.1	91	26.8	0	1	315	0.00	29.983 
03:05	29.1	29.1	29.1	91	26.8	0	2	315	0.00	29.983 
03:10	29.1	29.1	29.1	91	26.8	0	2	315	0.00	29.983 
03:15	29.1	29.1	29.1	91	26.8	0	1	315	0.00	29.989 
03:20	29.1	29.1	29.1	91	26.8	0	1	315	0.00	29.989 
03:25	29.1	29.1	29.1	91	26.8	0	1	315	0.00	29.989 
03:30	29.3	29.3	29.3	91	27.0	0	1	315	0.00	29.994 
03:35	29.3	29.3	29.3	91	27.0	0	1	315	0.00	29.994 
03:40	29.3	29.3	29.3	92	27.3	0	1	315	0.00	29.994 
03:45	29.3	29.3	29.3	92	27.3	0	1	315	0.00	29.995 
03:50	29.3	29.3	29.3	92	27.3	0	1	315	0.00	29.995 
03:55	29.3	29.3	29.3	92	27.3	0	1	315	0.00	29.995 
04:00	29.3	29.3	29.3	92	27.3	0	2	315	0.00	29.997 
04:05	29.4	29.4	29.4	92	27.4	0	1	315	0.00	29.997 
04:10	29.4	29.4	29.4	92	27.4	0	1	315	0.00	29.997 
04:15	29.4	29.4	29.4	92	27.4	0	2	315	0.00	29.998 
04:20	29.4	29.4	29.4	92	27.4	0	2	315	0.00	29.998 
04:25	29.4	29.4	29.4	92	27.4	0	1	315	0.00	29.998 
04:30	29.5	29.5	29.5	92	27.5	0	2	315	0.00	30.007 
04:35	29.5	29.5	29.5	92	27.5	0	1	315	0.00	30.007 
04:40	29.5	29.5	29.5	92	27.5	0	2	315	0.00	30.007 
04:45	29.5	29.5	29.5	92	27.5	0	2	315	0.00	30.010 
04:50	29.5	29.5	29.5	92	27.5	0	1	315	0.00	30.010 
04:55	29.5	29.5	29.5	92	27.5	0	1	315	0.00	30.010 
05:00	29.5	29.5	29.5	92	27.5	0	1	315	0.00	30.011 
05:05	29.5	29.5	29.5	92	27.5	0	1	315	0.00	30.011 
05:10	29.7	29.7	29.7	92	27.7	0	0	---	0.00	30.011 
05:15	29.7	29.7	29.7	92	27.7	0	0	---	0.00	30.014 
05:20	29.7	29.7	29.7	92	27.7	0	1	315	0.00	30.014 
05:25	29.7	29.7	29.7	92	27.7	0	0	---	0.00	30.014 
05:30	29.7	29.7	29.7	92	27.7	0	0	---	0.00	30.021 
05:35	29.7	29.7	29.7	92	27.7	0	0	---	0.00	30.021 
05:40	29.7	29.7	29.7	92	27.7	0	0	---	0.00	30.021 
05:45	29.7	29.7	29.7	92	27.7	0	0	---	0.00	30.027 
05:50	29.5	29.5	29.5	92	27.5	0	1	315	0.00	30.027 
05:55	29.4	29.4	29.4	92	27.4	0	1	315	0.00	30.027 
06:00	29.1	29.1	29.1	92	27.1	0	0	---	0.00	30.041 
06:05	28.8	28.8	28.8	92	26.8	0	1	315	0.00	30.041 
06:10	28.5	28.5	28.5	92	26.5	0	0	---	0.00	30.041 
06:15	28.4	28.4	28.4	92	26.4	0	0	---	0.00	30.047 
06:20	28.2	28.2	28.2	92	26.2	0	0	---	0.00	30.047 
06:25	28.1	28.1	28.1	92	26.1	0	0	---	0.00	30.047 
06:30	27.9	27.9	27.9	92	25.9	0	0	---	0.00	30.053 
06:35	27.8	27.8	27.8	92	25.8	0	0	---	0.00	30.053 
06:40	27.5	27.5	27.5	92	25.5	0	0	---	0.00	30.053 
06:45	27.3	27.3	27.3	92	25.3	0	0	---	0.00	30.061 
06:50	27.3	27.3	27.3	92	25.3	0	0	---	0.00	30.061 
06:55	27.2	27.2	27.2	92	25.2	0	0	---	0.00	30.061 
07:00	27.2	27.2	27.2	92	25.2	0	0	---	0.00	30.070 
07:05	27.0	27.0	27.0	92	25.0	0	0	---	0.00	30.070 
07:10	26.9	26.9	26.9	92	24.9	0	0	---	0.00	30.070 
07:15	26.7	26.7	26.7	92	24.7	0	1	315	0.00	30.076 
07:20	26.6	26.6	26.6	92	24.6	0	0	---	0.00	30.076 
07:25	26.6	26.6	26.6	92	24.6	0	0	---	0.00	30.076 
07:30	26.7	26.7	26.7	92	24.7	0	0	---	0.00	30.081 
07:35	26.9	26.9	26.9	92	24.9	0	1	315	0.00	30.081 
07:40	27.2	27.2	27.2	92	25.2	0	1	315	0.00	30.081 
07:45	27.5	27.5	27.5	92	25.5	0	1	315	0.00	30.090 
07:50	27.6	27.6	27.6	92	25.6	0	1	315	0.00	30.090 
07:55	27.8	27.8	27.8	92	25.8	0	1	315	0.00	30.090 
08:00	27.9	27.9	27.9	92	25.9	0	1	315	0.00	30.097 
08:05	27.9	27.9	27.9	92	25.9	0	1	315	0.00	30.097 
08:10	27.9	27.9	27.9	92	25.9	0	1	315	0.00	30.097 
08:15	27.9	27.9	27.9	92	25.9	0	1	315	0.00	30.109 
08:20	28.1	28.1	28.1	92	26.1	0	2	315	0.00	30.109 
08:25	28.2	28.2	28.2	92	26.2	0	1	315	0.00	30.109 
08:30	28.2	28.2	28.2	92	26.2	0	2	315	0.00	30.122 
08:35	28.4	28.4	28.4	92	26.4	0	1	315	0.00	30.122 
08:40	28.4	28.4	28.4	92	26.4	0	1	315	0.00	30.122 
08:45	28.5	28.5	28.5	92	26.5	0	1	315	0.00	30.129 
08:50	28.8	28.8	28.8	92	26.8	0	2	315	0.00	30.129 
08:55	29.0	29.0	29.0	92	27.0	1	2	315	0.00	30.129 
09:00	29.1	29.1	29.1	91	26.8	1	2	315	0.00	30.138 
09:05	29.3	29.3	29.3	91	27.0	1	2	315	0.00	30.138 
09:10	29.3	29.3	29.3	91	27.0	1	3	315	0.00	30.138 
09:15	29.3	29.3	29.3	90	26.7	1	2	315	0.00	30.148 
09:20	29.3	29.3	29.3	90	26.7	1	2	315	0.00	30.148 
09:25	29.3	29.3	29.3	90	26.7	0	2	315	0.00	30.148 
09:30	29.5	29.5	29.5	90	26.9	0	2	315	0.00	30.153 
09:35	29.8	29.8	29.8	89	27.0	1	3	315	0.00	30.153 
09:40	30.3	30.3	30.3	89	27.5	1	3	315	0.00	30.153 
09:45	30.6	30.6	30.6	88	27.5	1	3	315	0.00	30.153 
09:50	31.2	31.2	31.2	88	28.1	1	2	315	0.00	30.153 
09:55	31.8	31.8	31.8	87	28.4	1	3	315	0.00	30.153 
10:00	31.9	31.9	31.9	85	27.9	1	3	315	0.01	30.160 
10:05	32.1	32.1	32.1	85	28.1	0	2	315	0.00	30.160 
10:10	32.2	32.2	32.2	84	27.9	0	2	315	0.00	30.160 
10:15	32.4	32.4	32.4	84	28.1	1	3	315	0.00	30.166 
10:20	32.5	32.5	32.5	83	27.9	1	3	315	0.00	30.166 
10:25	32.5	32.5	32.5	82	27.6	1	2	315	0.01	30.166 
10:30	32.7	32.7	32.7	81	27.5	1	3	315	0.00	30.169 
10:35	32.8	32.8	32.8	81	27.6	1	4	315	0.00	30.169 
10:40	32.9	32.9	32.9	80	27.4	2	4	315	0.00	30.169 
10:45	33.1	33.1	33.1	79	27.3	1	3	292	0.00	30.179 
10:50	33.5	33.5	33.5	79	27.7	1	3	292	0.00	30.179 
10:55	33.5	33.5	33.5	78	27.4	1	3	292	0.00	30.179 
11:00	33.5	33.5	33.5	77	27.1	2	4	292	0.00	30.183 
11:05	33.5	33.5	33.5	77	27.1	1	4	292	0.00	30.183 
11:10	33.7	33.7	33.7	77	27.3	1	2	292	0.01	30.183 
11:15	33.8	33.8	33.8	76	27.1	1	3	292	0.00	30.188 
11:20	33.8	33.8	33.8	75	26.7	1	4	315	0.00	30.188 
11:25	34.1	34.1	34.1	75	27.0	0	2	315	0.00	30.188 
11:30	34.3	34.3	34.3	74	26.9	1	3	315	0.00	30.196 
11:35	34.4	34.4	34.4	73	26.7	2	4	315	0.00	30.196 
11:40	34.7	34.7	34.7	71	26.3	1	4	315	0.00	30.196 
11:45	34.4	34.4	34.4	69	25.3	1	4	292	0.00	30.194 
11:50	34.9	34.9	34.9	69	25.8	1	3	292	0.00	30.194 
11:55	35.0	35.0	35.0	69	25.9	1	4	292	0.00	30.194 
12:00	34.6	34.6	34.6	66	24.4	2	6	292	0.00	30.193 
12:05	34.1	34.1	34.1	66	23.9	2	6	315	0.00	30.193 
12:10	34.0	34.0	34.0	66	23.9	1	4	338	0.00	30.193 
12:15	34.0	34.0	34.0	67	24.2	1	3	292	0.00	30.196 
12:20	34.1	34.1	34.1	66	23.9	2	5	292	0.00	30.196 
12:25	34.6	34.6	34.6	65	24.1	2	4	292	0.00	30.196 
12:30	34.7	34.7	34.7	63	23.4	1	3	292	0.00	30.194 
12:35	34.7	34.7	34.7	62	23.0	2	4	248	0.00	30.194 
12:40	34.9	34.9	34.9	62	23.2	2	4	248	0.00	30.194 
12:45	34.9	34.9	34.9	62	23.2	2	5	292	0.00	30.193 
12:50	34.6	34.6	34.6	62	22.9	2	7	315	0.00	30.193 
12:55	34.6	34.6	34.6	61	22.6	2	4	315	0.00	30.193 
13:00	34.6	34.6	34.6	61	22.6	1	6	292	0.00	30.191 
13:05	34.7	34.7	34.7	62	23.0	1	3	292	0.00	30.191 
13:10	34.7	34.7	34.7	62	23.0	1	2	292	0.00	30.191 
13:15	34.9	34.9	34.9	61	22.8	1	4	292	0.00	30.192 
13:20	34.9	34.9	34.9	61	22.8	0	3	292	0.00	30.192 
13:25	34.7	34.7	34.7	60	22.3	1	3	292	0.00	30.192 
13:30	34.7	34.7	34.7	60	22.3	0	3	315	0.00	30.194 
13:35	34.7	34.7	34.7	62	23.0	0	2	315	0.00	30.194 
13:40	34.9	34.9	34.9	61	22.8	1	4	315	0.00	30.194 
13:45	34.9	34.9	34.9	61	22.8	1	3	315	0.00	30.196 
13:50	34.9	34.9	34.9	62	23.2	0	3	315	0.00	30.196 
13:55	35.0	35.0	35.0	62	23.3	0	1	315	0.00	30.196 
14:00	35.2	35.2	35.2	62	23.5	0	2	315	0.00	30.198 
14:05	35.5	35.5	35.5	61	23.4	1	3	315	0.00	30.198 
14:10	35.5	35.5	35.5	58	22.2	2	4	292	0.00	30.198 
14:15	35.5	35.5	35.5	58	22.2	1	4	270	0.00	30.197 
14:20	35.3	35.3	35.3	59	22.4	2	6	270	0.00	30.197 
14:25	35.2	35.2	35.2	60	22.7	2	7	338	0.00	30.197 
14:30	35.2	35.2	35.2	58	21.9	1	3	315	0.00	30.203 
14:35	35.2	35.2	35.2	57	21.5	2	5	338	0.00	30.203 
14:40	35.3	35.3	35.3	58	22.0	0	2	338	0.00	30.203 
14:45	35.8	35.8	35.8	58	22.5	1	3	338	0.00	30.203 
14:50	35.9	35.9	35.9	58	22.6	0	2	338	0.00	30.203 
14:55	36.0	36.0	36.0	58	22.7	1	3	338	0.00	30.203 
15:00	35.9	35.9	35.9	58	22.6	1	3	338	0.00	30.212 
15:05	35.8	35.8	35.8	59	22.9	1	5	338	0.00	30.212 
15:10	35.8	35.8	35.8	59	22.9	1	4	338	0.00	30.212 
15:15	35.6	35.6	35.6	59	22.7	1	2	338	0.00	30.216 
15:20	35.6	35.6	35.6	60	23.1	0	2	338	0.00	30.216 
15:25	35.5	35.5	35.5	59	22.6	1	2	338	0.00	30.216 
15:30	35.6	35.6	35.6	59	22.7	1	5	338	0.00	30.225 
15:35	35.5	35.5	35.5	59	22.6	1	4	270	0.00	30.225 
15:40	35.5	35.5	35.5	59	22.6	1	3	270	0.00	30.225 
15:45	35.8	35.8	35.8	59	22.9	1	3	270	0.00	30.228 
15:50	35.9	35.9	35.9	57	22.2	1	3	270	0.00	30.228 
15:55	35.9	35.9	35.9	55	21.3	1	4	270	0.00	30.228 
16:00	35.9	35.9	35.9	56	21.8	1	3	315	0.00	30.236 
16:05	35.8	35.8	35.8	54	20.8	2	5	270	0.00	30.236 
16:10	35.5	35.5	35.5	54	20.5	1	3	270	0.00	30.236 
16:15	35.5	35.5	35.5	53	20.1	1	3	270	0.00	30.238 
16:20	35.9	35.9	35.9	54	20.9	1	3	292	0.00	30.238 
16:25	36.0	36.0	36.0	53	20.5	1	4	315	0.00	30.238 
16:30	36.0	36.0	36.0	53	20.5	2	3	315	0.00	30.242 
16:35	35.6	35.6	35.6	53	20.2	2	4	270	0.00	30.242 
16:40	35.3	35.3	35.3	54	20.3	0	2	270	0.00	30.242 
16:45	35.3	35.3	35.3	55	20.8	0	3	270	0.00	30.246 
16:50	35.5	35.5	35.5	54	20.5	1	4	270	0.00	30.246 
16:55	35.6	35.6	35.6	52	19.7	1	3	270	0.00	30.246 
17:00	35.5	35.5	35.5	53	20.1	1	5	270	0.00	30.245 
17:05	35.2	35.2	35.2	54	20.2	1	3	315	0.00	30.245 
17:10	34.9	34.9	34.9	54	20.0	0	1	315	0.00	30.245 
17:15	34.7	34.7	34.7	55	20.2	1	3	315	0.00	30.255 
17:20	34.7	34.7	34.7	56	20.6	0	2	315	0.00	30.255 
17:25	34.7	34.7	34.7	56	20.6	0	1	315	0.00	30.255 
17:30	34.6	34.6	34.6	56	20.5	1	3	315	0.00	30.259 
17:35	34.6	34.6	34.6	56	20.5	0	3	315	0.00	30.259 
17:40	34.4	34.4	34.4	57	20.8	0	2	315	0.00	30.259 
17:45	34.1	34.1	34.1	57	20.5	0	3	315	0.00	30.263 
17:50	34.0	34.0	34.0	58	20.8	0	2	315	0.00	30.263 
17:55	33.7	33.7	33.7	58	20.5	0	2	315	0.00	30.263 
18:00	33.5	33.5	33.5	59	20.7	0	2	315	0.00	30.268 
18:05	33.4	33.4	33.4	59	20.6	1	3	315	0.00	30.268 
18:10	33.1	33.1	33.1	60	20.7	0	3	315	0.00	30.268 
18:15	32.9	32.9	32.9	60	20.6	0	3	315	0.00	30.280 
18:20	32.7	32.7	32.7	61	20.8	0	3	315	0.00	30.280 
18:25	32.5	32.5	32.5	61	20.6	1	3	315	0.00	30.280 
18:30	32.2	32.2	32.2	62	20.7	0	2	315	0.00	30.285 
18:35	32.1	32.1	32.1	62	20.6	0	2	315	0.00	30.285 
18:40	31.8	31.8	31.8	62	20.3	0	2	315	0.00	30.285 
18:45	31.6	31.6	31.6	63	20.5	0	1	315	0.00	30.297 
18:50	31.5	31.5	31.5	63	20.4	0	1	315	0.00	30.297 
18:55	31.2	31.2	31.2	64	20.5	0	1	315	0.00	30.297 
19:00	31.0	31.0	31.0	64	20.3	0	1	315	0.00	30.308 
19:05	30.7	30.7	30.7	64	20.0	0	0	---	0.00	30.308 
19:10	30.6	30.6	30.6	65	20.3	0	1	315	0.00	30.308 
19:15	30.4	30.4	30.4	65	20.1	0	1	315	0.00	30.312 
19:20	30.3	30.3	30.3	65	20.0	0	1	315	0.00	30.312 
19:25	30.1	30.1	30.1	65	19.8	0	1	315	0.00	30.312 
19:30	30.0	30.0	30.0	66	20.0	0	1	315	0.00	30.314 
19:35	29.8	29.8	29.8	65	19.5	0	1	315	0.00	30.314 
19:40	29.8	29.8	29.8	65	19.5	0	1	315	0.00	30.314 
19:45	29.7	29.7	29.7	65	19.4	0	1	315	0.00	30.317 
19:50	29.5	29.5	29.5	65	19.2	0	0	---	0.00	30.317 
19:55	29.4	29.4	29.4	66	19.5	0	1	315	0.00	30.317 
20:00	29.3	29.3	29.3	66	19.4	0	0	---	0.00	30.321 
20:05	29.1	29.1	29.1	66	19.2	0	0	---	0.00	30.321 
20:10	29.0	29.0	29.0	67	19.4	0	0	---	0.00	30.321 
20:15	28.8	28.8	28.8	67	19.2	0	1	315	0.00	30.322 
20:20	28.7	28.7	28.7	67	19.2	0	1	315	0.00	30.322 
20:25	28.5	28.5	28.5	67	19.0	0	0	---	0.00	30.322 
20:30	28.5	28.5	28.5	67	19.0	0	0	---	0.00	30.327 
20:35	28.4	28.4	28.4	68	19.2	0	0	---	0.00	30.327 
20:40	28.2	28.2	28.2	68	19.0	0	0	---	0.00	30.327 
20:45	28.1	28.1	28.1	68	18.9	0	0	---	0.00	30.331 
20:50	27.9	27.9	27.9	69	19.1	0	0	---	0.00	30.331 
20:55	27.6	27.6	27.6	69	18.8	0	0	---	0.00	30.331 
21:00	27.3	27.3	27.3	69	18.5	0	0	---	0.00	30.332 
21:05	27.0	27.0	27.0	70	18.5	0	0	---	0.00	30.332 
21:10	26.6	26.6	26.6	71	18.5	0	0	---	0.00	30.332 
21:15	26.3	26.3	26.3	71	18.2	0	0	---	0.00	30.335 
21:20	26.0	26.0	26.0	72	18.2	0	0	---	0.00	30.335 
21:25	25.7	25.7	25.7	72	17.9	0	0	---	0.00	30.335 
21:30	25.4	25.4	25.4	73	18.0	0	0	---	0.00	30.345 
21:35	25.1	25.1	25.1	74	18.0	0	0	---	0.00	30.345 
21:40	25.3	25.3	25.3	75	18.5	0	0	---	0.00	30.345 
21:45	25.4	25.4	25.4	75	18.6	0	0	---	0.00	30.346 
21:50	25.6	25.6	25.6	75	18.8	0	0	---	0.00	30.346 
21:55	25.6	25.6	25.6	75	18.8	0	0	---	0.00	30.346 
22:00	25.6	25.6	25.6	74	18.5	0	0	---	0.00	30.347 
22:05	25.6	25.6	25.6	74	18.5	0	0	---	0.00	30.347 
22:10	25.4	25.4	25.4	73	18.0	0	0	---	0.00	30.347 
22:15	25.4	25.4	25.4	73	18.0	0	0	---	0.00	30.351 
22:20	25.3	25.3	25.3	73	17.9	0	0	---	0.00	30.351 
22:25	25.1	25.1	25.1	73	17.7	0	0	---	0.00	30.351 
22:30	25.1	25.1	25.1	73	17.7	0	0	---	0.00	30.359 
22:35	25.1	25.1	25.1	73	17.7	0	0	---	0.00	30.359 
22:40	25.1	25.1	25.1	73	17.7	0	0	---	0.00	30.359 
22:45	25.1	25.1	25.1	73	17.7	0	0	---	0.00	30.360 
22:50	25.1	25.1	25.1	73	17.7	0	0	---	0.00	30.360 
22:55	25.1	25.1	25.1	73	17.7	0	0	---	0.00	30.360 
23:00	25.0	25.0	25.0	73	17.6	0	0	---	0.00	30.360 
23:05	25.0	25.0	25.0	72	17.3	0	0	---	0.00	30.360 
23:10	24.8	24.8	24.8	72	17.1	0	0	---	0.00	30.360 
23:15	24.7	24.7	24.7	72	17.0	0	0	---	0.00	30.358 
23:20	24.5	24.5	24.5	72	16.8	0	0	---	0.00	30.358 
23:25	24.4	24.4	24.4	72	16.7	0	0	---	0.00	30.358 
23:30	24.2	24.2	24.2	72	16.5	0	0	---	0.00	30.360 
23:35	23.9	23.9	23.9	72	16.2	0	0	---	0.00	30.360 
23:40	23.8	23.8	23.8	72	16.1	0	0	---	0.00	30.360 
23:45	23.5	23.5	23.5	72	15.8	0	0	---	0.00	30.364 
23:50	23.2	23.2	23.2	73	15.9	0	0	---	0.00	30.364 
23:55	22.9	22.9	22.9	73	15.6	0	0	---	0.00	30.364 

CoCoRaHS
IN-AL-39
A2 Web Hosting
Creative Commons License
GoDaddy
search engine by freefind advanced

loaded 2018-11-13 17:03:54 • last modified 2010-11-18 10:43:29
Privacy PolicyDisclaimer
• wx.awcolley.com is powered by PmWiki v.2002016 •
• all content (unless otherwise noted) © 2018 A W Colley